Time;durP1;ratioP1;P1;durP2;ratioP2;P2;SDS_P1;SDS_P2;PMS_P1;PMS_P2;Temp;Humidity;BMP_temperature;BMP_pressure;BME280_temperature;BME280_humidity;BME280_pressure;Samples;Min_cycle;Max_cycle;Signal;HPM_P1;HPM_P2
2023/12/26 00:02:09;;;;;;;13.98;5.55;;;;;;;0.46;80.10;96313.63;5077031;28;20039;-67
2023/12/26 00:04:35;;;;;;;12.45;5.85;;;;;;;0.43;80.56;96311.19;5059861;28;20051;-66
2023/12/26 00:07:01;;;;;;;14.00;5.70;;;;;;;0.38;80.36;96305.47;5080249;28;20047;-68
2023/12/26 00:09:27;;;;;;;13.60;5.68;;;;;;;0.49;80.44;96302.41;5023932;28;20507;-68
2023/12/26 00:11:53;;;;;;;16.85;6.38;;;;;;;0.34;80.84;96268.22;5075578;28;20047;-65
2023/12/26 00:14:20;;;;;;;12.57;5.30;;;;;;;0.55;80.32;96307.22;5080432;28;20036;-65
2023/12/26 00:16:46;;;;;;;11.75;5.05;;;;;;;0.49;80.45;96305.78;5073058;28;20040;-66
2023/12/26 00:19:12;;;;;;;14.80;6.25;;;;;;;0.46;81.34;96297.47;5075515;28;20048;-67
2023/12/26 00:21:39;;;;;;;18.13;6.72;;;;;;;0.27;80.75;96256.63;5074677;28;20511;-66
2023/12/26 00:24:06;;;;;;;10.45;5.70;;;;;;;0.55;81.22;96299.56;5065979;28;20450;-66
2023/12/26 00:26:32;;;;;;;14.23;5.75;;;;;;;0.50;80.76;96287.00;5078019;28;20094;-66
2023/12/26 00:28:59;;;;;;;15.80;6.05;;;;;;;0.65;81.08;96293.91;5075265;28;20040;-66
2023/12/26 00:31:25;;;;;;;10.63;5.47;;;;;;;0.82;80.98;96293.91;5071441;28;20543;-66
2023/12/26 00:33:53;;;;;;;12.43;5.47;;;;;;;0.83;80.43;96294.75;5073101;28;20047;-66
2023/12/26 00:36:19;;;;;;;13.13;5.72;;;;;;;0.56;80.32;96260.31;5060004;28;20208;-67
2023/12/26 00:38:46;;;;;;;12.70;5.70;;;;;;;0.70;80.49;96291.97;5066040;28;20079;-66
2023/12/26 00:41:13;;;;;;;16.35;5.45;;;;;;;0.72;80.20;96284.22;5078796;28;20084;-66
2023/12/26 00:43:39;;;;;;;12.80;5.72;;;;;;;0.75;80.13;96284.88;5077160;28;20058;-66
2023/12/26 00:46:06;;;;;;;11.00;5.25;;;;;;;0.73;79.91;96284.13;5079597;28;20153;-67
2023/12/26 00:48:32;;;;;;;11.38;5.30;;;;;;;0.53;80.19;96243.41;5069401;28;20094;-66
2023/12/26 00:50:58;;;;;;;12.82;5.88;;;;;;;0.75;80.33;96274.66;5075400;28;20051;-65
2023/12/26 00:53:25;;;;;;;13.15;6.05;;;;;;;0.77;80.44;96275.44;5070865;28;20037;-66
2023/12/26 00:55:51;;;;;;;9.98;5.47;;;;;;;0.89;80.17;96270.59;5073575;28;20615;-65
2023/12/26 00:58:17;;;;;;;12.88;5.30;;;;;;;0.65;79.66;96241.97;5072861;28;20136;-66
2023/12/26 01:00:43;;;;;;;12.43;5.57;;;;;;;0.63;79.77;96243.81;5073748;28;20113;-66
2023/12/26 01:03:09;;;;;;;12.95;5.32;;;;;;;0.64;79.83;96241.16;5074580;28;20143;-65
2023/12/26 01:05:35;;;;;;;13.02;5.55;;;;;;;0.93;79.77;96278.03;5064471;28;20553;-67
2023/12/26 01:08:01;;;;;;;11.38;5.22;;;;;;;0.70;79.49;96234.91;5074110;28;20056;-66
2023/12/26 01:10:27;;;;;;;12.02;5.38;;;;;;;0.94;79.73;96279.69;5074333;28;20408;-67
2023/12/26 01:12:53;;;;;;;10.27;4.90;;;;;;;0.84;79.81;96276.75;5082326;28;20060;-65
2023/12/26 01:15:19;;;;;;;13.75;6.28;;;;;;;0.93;79.72;96279.75;5074215;28;20047;-66
2023/12/26 01:17:45;;;;;;;15.60;6.00;;;;;;;1.03;79.88;96268.16;5057366;28;20483;-64
2023/12/26 01:20:12;;;;;;;9.82;5.38;;;;;;;0.95;79.56;96271.09;5071902;28;20173;-67
2023/12/26 01:22:38;;;;;;;15.23;5.45;;;;;;;0.92;79.77;96268.72;5074076;28;20349;-66
2023/12/26 01:25:05;;;;;;;15.75;5.45;;;;;;;0.73;80.05;96247.53;5066804;28;20139;-67
2023/12/26 01:27:33;;;;;;;11.02;5.45;;;;;;;0.93;80.15;96277.22;5065635;28;20089;-69
2023/12/26 01:30:01;;;;;;;13.10;5.70;;;;;;;1.07;79.82;96280.72;5075497;28;20811;-67
2023/12/26 01:32:30;;;;;;;10.77;4.82;;;;;;;1.17;80.04;96275.94;5074243;28;20087;-66
2023/12/26 01:34:56;;;;;;;13.40;5.55;;;;;;;1.15;79.75;96275.22;5072425;28;20118;-66
2023/12/26 01:37:22;;;;;;;11.25;4.95;;;;;;;0.95;79.45;96244.69;5073546;28;20574;-64
2023/12/26 01:39:48;;;;;;;11.40;5.07;;;;;;;1.19;79.55;96272.41;5075109;28;20079;-66
2023/12/26 01:42:14;;;;;;;14.77;5.90;;;;;;;1.06;79.51;96260.31;5057248;28;20507;-66
2023/12/26 01:44:40;;;;;;;13.40;5.88;;;;;;;1.18;79.70;96277.59;5073209;28;20140;-67
2023/12/26 01:47:07;;;;;;;13.40;5.82;;;;;;;1.25;79.32;96274.66;5074818;28;20131;-66
2023/12/26 01:49:33;;;;;;;10.45;5.05;;;;;;;1.14;79.36;96256.47;5080141;28;20040;-64
2023/12/26 01:51:58;;;;;;;16.73;5.88;;;;;;;1.27;78.96;96274.56;5074231;28;20067;-66
2023/12/26 01:54:31;;;;;;;11.13;4.95;;;;;;;1.29;79.14;96270.19;5056923;28;20040;-65
2023/12/26 01:56:58;;;;;;;10.75;5.18;;;;;;;1.36;79.19;96271.50;5072217;28;20096;-67
2023/12/26 01:59:24;;;;;;;13.23;5.80;;;;;;;1.33;79.17;96256.34;5072912;28;20055;-66
2023/12/26 02:01:50;;;;;;;12.27;4.97;;;;;;;1.38;79.09;96271.44;5068999;28;20040;-67
2023/12/26 02:04:16;;;;;;;11.27;4.75;;;;;;;1.40;78.92;96261.97;5083972;28;20035;-66
2023/12/26 02:06:42;;;;;;;9.35;4.53;;;;;;;1.33;78.94;96258.06;5081103;28;20046;-69
2023/12/26 02:09:11;;;;;;;8.85;4.75;;;;;;;1.05;79.03;96230.53;5085699;28;20169;-67
2023/12/26 02:11:38;;;;;;;;;;;;;;;1.22;79.02;96268.84;5070992;28;20127;-69
2023/12/26 02:14:05;;;;;;;11.93;4.60;;;;;;;0.96;79.09;96228.47;5074079;28;19973;-68
2023/12/26 02:16:35;;;;;;;14.15;4.38;;;;;;;1.23;79.44;96273.91;5062381;28;20117;-69
2023/12/26 02:19:01;;;;;;;9.10;4.40;;;;;;;1.04;79.21;96234.84;5066413;28;20048;-67
2023/12/26 02:21:27;;;;;;;10.20;5.00;;;;;;;0.86;79.02;96228.09;5068231;28;20038;-68
2023/12/26 02:23:54;;;;;;;14.15;6.45;;;;;;;1.08;79.55;96240.63;5075403;28;20036;-65
2023/12/26 02:26:26;;;;;;;10.38;5.05;;;;;;;1.23;79.29;96227.84;5089001;28;20044;-66
2023/12/26 02:28:52;;;;;;;12.07;5.55;;;;;;;1.41;78.92;96277.25;5071876;28;20037;-66
2023/12/26 02:31:18;;;;;;;14.70;5.78;;;;;;;1.32;79.22;96275.13;5082246;28;20121;-65
2023/12/26 02:33:46;;;;;;;13.70;5.72;;;;;;;0.88;79.08;96203.31;5052665;28;20041;-65
2023/12/26 02:36:14;;;;;;;12.73;5.63;;;;;;;1.15;79.38;96247.06;5071814;28;20051;-66
2023/12/26 02:38:41;;;;;;;15.07;6.47;;;;;;;1.36;78.94;96278.38;5077657;28;20526;-66
2023/12/26 02:41:07;;;;;;;18.05;7.32;;;;;;;1.32;79.09;96282.81;5068997;28;20051;-66
2023/12/26 02:43:35;;;;;;;19.45;7.25;;;;;;;1.36;79.54;96288.63;5068279;28;20032;-67
2023/12/26 02:46:02;;;;;;;17.67;6.90;;;;;;;1.45;79.37;96272.78;5068519;28;20066;-66
2023/12/26 02:48:29;;;;;;;13.32;6.57;;;;;;;1.44;79.03;96266.00;5068696;28;20043;-67
2023/12/26 02:50:55;;;;;;;16.25;7.20;;;;;;;1.48;79.19;96291.34;5073364;28;20069;-66
2023/12/26 02:53:22;;;;;;;15.73;6.47;;;;;;;1.49;78.96;96290.44;5070268;28;20786;-66
2023/12/26 02:55:52;;;;;;;14.55;6.80;;;;;;;1.38;79.37;96259.47;5072110;28;20136;-66
2023/12/26 02:58:19;;;;;;;15.02;6.68;;;;;;;1.80;79.05;96296.50;5048840;28;20100;-68
2023/12/26 03:00:45;;;;;;;15.40;6.80;;;;;;;1.77;78.78;96256.53;5055691;28;20044;-68
2023/12/26 03:03:11;;;;;;;12.55;5.68;;;;;;;2.05;78.67;96287.38;5079827;28;20066;-64
2023/12/26 03:05:37;;;;;;;11.45;5.47;;;;;;;1.92;78.22;96283.88;5082853;28;20926;-66
2023/12/26 03:08:03;;;;;;;12.00;5.82;;;;;;;2.03;78.26;96281.53;5081935;28;20054;-68
2023/12/26 03:10:29;;;;;;;14.13;5.78;;;;;;;1.82;77.41;96244.31;5048966;28;20048;-70
2023/12/26 03:12:56;;;;;;;15.77;6.07;;;;;;;1.91;77.63;96279.66;5082405;28;20036;-67
2023/12/26 03:15:22;;;;;;;15.07;5.75;;;;;;;2.05;78.04;96284.81;5084442;28;20241;-69
2023/12/26 03:17:48;;;;;;;9.68;4.70;;;;;;;2.02;77.66;96279.06;5069652;28;20055;-68
2023/12/26 03:20:15;;;;;;;11.05;5.72;;;;;;;2.02;77.74;96281.63;5088115;28;20044;-67
2023/12/26 03:22:41;;;;;;;10.38;5.18;;;;;;;2.02;77.83;96256.84;5088186;28;20040;-68
2023/12/26 03:25:08;;;;;;;9.48;4.68;;;;;;;2.11;77.54;96270.84;5069215;28;20558;-67
2023/12/26 03:27:33;;;;;;;11.45;5.13;;;;;;;2.09;77.15;96281.19;5086727;28;20473;-66
2023/12/26 03:30:00;;;;;;;9.18;4.50;;;;;;;1.78;77.35;96249.69;5068593;28;20043;-68
2023/12/26 03:32:26;;;;;;;10.18;4.70;;;;;;;2.10;77.61;96294.81;5066615;28;20048;-67
2023/12/26 03:34:52;;;;;;;10.60;5.22;;;;;;;2.08;77.49;96289.81;5068745;28;20040;-69
2023/12/26 03:37:18;;;;;;;9.57;4.90;;;;;;;2.03;77.35;96293.53;5086426;28;20039;-67
2023/12/26 03:39:44;;;;;;;11.52;4.82;;;;;;;1.96;77.38;96281.94;5066872;28;20447;-66
2023/12/26 03:42:10;;;;;;;10.82;5.03;;;;;;;2.04;77.67;96298.53;5086686;28;20036;-67
2023/12/26 03:44:36;;;;;;;8.80;4.60;;;;;;;2.08;77.39;96291.53;5083115;28;20047;-67
2023/12/26 03:47:02;;;;;;;11.70;5.03;;;;;;;2.13;77.47;96292.09;5066745;28;20038;-67
2023/12/26 03:49:28;;;;;;;11.20;4.90;;;;;;;2.00;77.11;96252.69;5087538;28;20126;-68
2023/12/26 03:51:54;;;;;;;12.38;5.22;;;;;;;2.08;76.76;96282.13;5073923;28;20241;-69
2023/12/26 03:54:22;;;;;;;8.18;4.38;;;;;;;2.07;77.33;96289.88;5086772;28;20396;-69
2023/12/26 03:56:48;;;;;;;8.82;4.68;;;;;;;2.09;77.29;96291.44;5073666;28;20525;-67
2023/12/26 03:59:14;;;;;;;9.02;4.47;;;;;;;2.00;77.03;96263.75;5056736;28;20040;-69
2023/12/26 04:01:41;;;;;;;11.98;4.60;;;;;;;2.02;76.85;96295.25;5066888;28;20032;-66
2023/12/26 04:04:07;;;;;;;13.70;4.82;;;;;;;1.90;77.64;96295.91;5086403;28;20097;-67
2023/12/26 04:06:33;;;;;;;9.68;4.90;;;;;;;1.87;78.08;96292.69;5075852;28;20417;-71
2023/12/26 04:09:04;;;;;;;13.02;4.57;;;;;;;1.91;78.37;96305.25;5055590;28;20048;-66
2023/12/26 04:11:32;;;;;;;12.63;4.97;;;;;;;1.88;78.80;96307.16;5040281;28;20055;-68
2023/12/26 04:13:58;;;;;;;9.80;5.05;;;;;;;1.79;79.16;96277.75;5072128;28;20529;-67
2023/12/26 04:16:24;;;;;;;9.02;4.45;;;;;;;2.17;79.06;96303.84;5070417;28;20048;-67
2023/12/26 04:18:50;;;;;;;8.77;4.30;;;;;;;2.35;78.94;96309.69;5053364;28;20124;-68
2023/12/26 04:21:16;;;;;;;9.00;4.95;;;;;;;2.45;78.73;96306.53;5053618;28;20185;-70
2023/12/26 04:23:42;;;;;;;9.27;4.90;;;;;;;2.43;78.39;96316.03;5070176;28;20079;-68
2023/12/26 04:26:08;;;;;;;12.07;4.22;;;;;;;2.36;78.38;96316.44;5069558;28;20048;-68
2023/12/26 04:28:34;;;;;;;9.30;4.30;;;;;;;2.01;78.34;96274.84;5069655;28;20051;-67
2023/12/26 04:31:03;;;;;;;15.30;4.88;;;;;;;2.32;78.76;96314.97;5053174;28;20110;-68
2023/12/26 04:33:29;;;;;;;10.63;4.30;;;;;;;2.16;78.60;96316.72;5071117;28;20047;-69
2023/12/26 04:35:55;;;;;;;9.52;4.50;;;;;;;1.91;78.97;96325.75;5069497;28;20052;-68
2023/12/26 04:38:21;;;;;;;10.63;3.95;;;;;;;1.69;79.53;96313.25;5053309;28;20047;-68
2023/12/26 04:40:47;;;;;;;10.95;4.68;;;;;;;1.67;80.29;96332.19;5083758;28;20523;-69
2023/12/26 04:43:12;;;;;;;10.50;4.57;;;;;;;1.68;80.61;96344.88;5089618;28;20040;-68
2023/12/26 04:45:38;;;;;;;8.77;4.22;;;;;;;1.68;80.97;96341.47;5081015;28;20059;-69
2023/12/26 04:48:07;;;;;;;9.07;4.13;;;;;;;1.72;81.20;96340.44;5073485;28;20040;-67
2023/12/26 04:50:34;;;;;;;8.45;3.90;;;;;;;1.70;81.42;96342.25;5074256;28;20040;-68
2023/12/26 04:53:04;;;;;;;9.30;4.15;;;;;;;1.72;81.43;96349.84;5059007;28;20051;-68
2023/12/26 04:55:32;;;;;;;12.38;4.40;;;;;;;1.71;82.14;96356.69;5080249;28;20436;-67
2023/12/26 04:57:58;;;;;;;9.27;3.67;;;;;;;1.92;81.75;96360.69;5070023;28;20531;-68
2023/12/26 05:00:24;;;;;;;9.23;3.95;;;;;;;1.97;81.33;96361.28;5068677;28;20042;-67
2023/12/26 05:02:50;;;;;;;7.85;3.70;;;;;;;1.68;81.27;96324.41;5068814;28;20044;-66
2023/12/26 05:05:17;;;;;;;9.05;4.18;;;;;;;1.92;81.53;96365.81;5069220;28;20047;-67
2023/12/26 05:07:43;;;;;;;7.55;4.07;;;;;;;1.72;81.44;96340.44;5068989;28;20040;-68
2023/12/26 05:10:09;;;;;;;11.07;4.40;;;;;;;2.00;81.49;96376.47;5074978;28;20032;-70
2023/12/26 05:12:35;;;;;;;13.68;4.30;;;;;;;1.96;81.50;96379.28;5068828;28;20071;-67
2023/12/26 05:15:01;;;;;;;10.63;4.13;;;;;;;1.97;81.83;96379.19;5051629;28;20053;-68
2023/12/26 05:17:31;;;;;;;9.57;4.03;;;;;;;2.05;81.67;96378.78;5052496;28;20044;-67
2023/12/26 05:19:58;;;;;;;10.10;3.78;;;;;;;1.74;82.04;96342.91;5068392;28;20044;-67
2023/12/26 05:22:24;;;;;;;11.25;4.90;;;;;;;1.89;82.78;96385.63;5068688;28;20025;-68
2023/12/26 05:24:50;;;;;;;11.82;4.47;;;;;;;1.90;83.34;96382.16;5068650;28;20051;-68
2023/12/26 05:27:16;;;;;;;11.35;4.70;;;;;;;1.95;83.75;96387.84;5051811;28;20237;-68
2023/12/26 05:29:45;;;;;;;12.00;4.00;;;;;;;1.82;83.69;96353.56;5068261;28;20068;-68
2023/12/26 05:32:11;;;;;;;9.98;4.50;;;;;;;2.07;83.92;96398.28;5068051;28;20106;-68
2023/12/26 05:34:38;;;;;;;9.30;3.90;;;;;;;1.99;84.13;96395.28;5069576;28;20332;-68
2023/12/26 05:37:04;;;;;;;13.43;4.65;;;;;;;1.96;84.67;96395.47;5068561;28;20048;-67
2023/12/26 05:39:31;;;;;;;14.15;4.97;;;;;;;1.76;84.39;96374.38;5068223;28;20177;-67
2023/12/26 05:41:57;;;;;;;12.68;4.43;;;;;;;1.99;85.22;96405.53;5068480;28;20122;-68
2023/12/26 05:44:25;;;;;;;11.13;4.47;;;;;;;2.00;85.05;96399.50;5067150;28;20040;-68
2023/12/26 05:46:51;;;;;;;19.67;5.57;;;;;;;1.91;85.15;96371.00;5068261;28;20040;-68
2023/12/26 05:49:17;;;;;;;11.48;3.70;;;;;;;2.32;85.17;96413.16;5073569;28;20036;-68
2023/12/26 05:51:43;;;;;;;13.57;4.88;;;;;;;2.07;84.73;96382.94;5067850;28;20055;-68
2023/12/26 05:54:09;;;;;;;17.15;4.97;;;;;;;2.37;85.00;96413.75;5067821;28;20036;-67
2023/12/26 05:56:35;;;;;;;13.20;5.07;;;;;;;2.18;84.56;96392.59;5058696;28;20131;-67
2023/12/26 05:59:01;;;;;;;13.90;5.45;;;;;;;2.32;84.56;96423.41;5069166;28;20048;-68
2023/12/26 06:01:28;;;;;;;11.77;5.00;;;;;;;2.31;84.73;96441.44;5068035;28;20821;-68
2023/12/26 06:03:54;;;;;;;14.63;5.65;;;;;;;2.43;84.72;96433.94;5051427;28;20076;-66
2023/12/26 06:06:21;;;;;;;8.77;4.20;;;;;;;2.43;84.71;96448.47;5055519;28;20058;-67
2023/12/26 06:08:47;;;;;;;10.30;4.43;;;;;;;2.38;84.77;96443.59;5050880;28;20170;-71
2023/12/26 06:11:13;;;;;;;15.40;5.13;;;;;;;2.34;85.10;96447.25;5081578;28;20052;-68
2023/12/26 06:13:40;;;;;;;15.88;4.63;;;;;;;2.27;85.45;96450.19;5067579;28;20037;-67
2023/12/26 06:16:06;;;;;;;11.25;4.50;;;;;;;2.30;85.80;96456.00;5067288;28;20082;-69
2023/12/26 06:18:34;;;;;;;10.48;4.80;;;;;;;2.33;85.96;96455.84;5067464;28;20050;-67
2023/12/26 06:21:00;;;;;;;11.45;4.68;;;;;;;2.15;85.92;96423.50;5050816;28;20052;-67
2023/12/26 06:23:26;;;;;;;15.65;5.70;;;;;;;2.25;85.88;96440.03;5067312;28;20033;-70
2023/12/26 06:25:54;;;;;;;14.05;5.00;;;;;;;2.18;85.87;96417.38;5050637;28;20059;-67
2023/12/26 06:28:21;;;;;;;12.77;4.77;;;;;;;2.38;86.02;96428.22;5067966;28;20043;-66
2023/12/26 06:30:48;;;;;;;9.57;4.10;;;;;;;2.60;85.67;96465.53;5087553;28;20036;-68
2023/12/26 06:33:14;;;;;;;8.93;4.18;;;;;;;2.74;85.28;96474.09;5087291;28;20044;-69
2023/12/26 06:35:40;;;;;;;13.48;4.95;;;;;;;2.48;85.22;96429.38;5070756;28;20047;-66
2023/12/26 06:38:12;;;;;;;8.88;4.25;;;;;;;2.85;85.29;96481.22;5070087;28;20039;-66
2023/12/26 06:40:39;;;;;;;11.90;4.32;;;;;;;2.82;84.50;96483.97;5051673;28;20285;-66
2023/12/26 06:43:07;;;;;;;8.70;3.72;;;;;;;2.75;85.02;96487.75;5068005;28;20044;-69
2023/12/26 06:45:33;;;;;;;9.70;4.85;;;;;;;2.78;84.77;96490.16;5067279;28;20131;-67
2023/12/26 06:47:59;;;;;;;10.38;4.20;;;;;;;2.88;84.86;96492.13;5067058;28;20578;-67
2023/12/26 06:50:25;;;;;;;9.90;4.10;;;;;;;2.90;85.00;96497.19;5073198;28;20086;-65
2023/12/26 06:52:51;;;;;;;6.60;3.25;;;;;;;2.95;84.89;96501.16;5067173;28;20094;-68
2023/12/26 06:55:17;;;;;;;11.18;4.20;;;;;;;2.94;85.41;96508.94;5067619;28;20111;-67
2023/12/26 06:57:43;;;;;;;13.75;4.35;;;;;;;2.95;85.43;96508.03;5067595;28;20032;-67
2023/12/26 07:00:10;;;;;;;7.80;3.63;;;;;;;2.99;85.40;96517.19;5050388;28;20088;-67
2023/12/26 07:02:36;;;;;;;12.13;4.10;;;;;;;3.05;85.71;96516.88;5068720;28;20098;-67
2023/12/26 07:05:01;;;;;;;7.90;4.15;;;;;;;3.13;85.48;96519.03;5068246;28;20354;-67
2023/12/26 07:07:29;;;;;;;8.00;3.60;;;;;;;3.16;84.94;96529.09;5067303;28;20044;-67
2023/12/26 07:09:55;;;;;;;10.75;3.47;;;;;;;3.14;84.61;96526.63;5074435;28;20131;-64
2023/12/26 07:12:21;;;;;;;7.95;3.78;;;;;;;3.15;84.87;96524.88;5067546;28;20120;-66
2023/12/26 07:14:47;;;;;;;13.25;4.07;;;;;;;3.21;84.42;96538.19;5069790;28;20040;-65
2023/12/26 07:17:13;;;;;;;7.15;3.80;;;;;;;3.28;85.00;96538.69;5067292;28;20423;-68
2023/12/26 07:19:39;;;;;;;10.27;4.05;;;;;;;3.39;84.92;96542.31;5069118;28;20036;-67
2023/12/26 07:22:04;;;;;;;8.15;2.85;;;;;;;3.45;84.83;96545.47;5069846;28;20032;-65
2023/12/26 07:24:30;;;;;;;7.65;3.20;;;;;;;3.35;84.75;96547.69;5054270;28;20036;-65
2023/12/26 07:26:56;;;;;;;5.70;2.83;;;;;;;3.06;84.84;96515.97;5070711;28;20828;-66
2023/12/26 07:29:23;;;;;;;7.93;3.53;;;;;;;3.35;85.44;96556.22;5072094;28;20048;-66
2023/12/26 07:31:52;;;;;;;8.05;3.38;;;;;;;3.48;85.03;96558.94;5054126;28;20079;-66
2023/12/26 07:34:18;;;;;;;7.03;3.40;;;;;;;3.60;85.35;96563.41;5072493;28;20059;-67
2023/12/26 07:36:44;;;;;;;5.43;2.90;;;;;;;3.74;84.69;96568.56;5072782;28;20504;-67
2023/12/26 07:39:10;;;;;;;8.20;3.65;;;;;;;3.77;84.75;96570.13;5073089;28;20032;-66
2023/12/26 07:41:36;;;;;;;7.03;2.75;;;;;;;3.82;84.01;96581.00;5091059;28;20518;-69
2023/12/26 07:44:02;;;;;;;5.97;3.10;;;;;;;3.75;83.60;96587.38;5072269;28;20068;-66
2023/12/26 07:46:28;;;;;;;8.18;2.65;;;;;;;3.79;83.92;96594.00;5072020;28;20127;-67
2023/12/26 07:48:54;;;;;;;5.78;2.67;;;;;;;3.72;83.03;96596.06;5076053;28;20043;-66
2023/12/26 07:51:20;;;;;;;8.00;2.63;;;;;;;3.65;83.17;96591.38;5072581;28;20048;-66
2023/12/26 07:53:47;;;;;;;6.28;3.10;;;;;;;3.73;83.30;96607.19;5070106;28;20051;-66
2023/12/26 07:56:13;;;;;;;7.05;3.05;;;;;;;3.80;83.08;96599.06;5087033;28;20394;-68
2023/12/26 07:58:39;;;;;;;9.48;2.60;;;;;;;3.73;83.34;96608.00;5071321;28;20089;-65
2023/12/26 08:01:05;;;;;;;6.32;2.65;;;;;;;3.67;83.70;96612.66;5053503;28;20044;-66
2023/12/26 08:03:31;;;;;;;5.95;2.58;;;;;;;3.62;83.75;96615.50;5070729;28;20123;-68
2023/12/26 08:05:57;;;;;;;6.43;2.70;;;;;;;3.65;84.15;96620.47;5070653;28;20508;-67
2023/12/26 08:08:23;;;;;;;6.05;2.83;;;;;;;3.65;84.53;96625.63;5070768;28;20091;-66
2023/12/26 08:10:49;;;;;;;7.20;2.72;;;;;;;3.53;84.78;96631.41;5087713;28;20043;-67
2023/12/26 08:13:15;;;;;;;6.80;2.47;;;;;;;3.55;85.05;96634.75;5084637;28;20097;-67
2023/12/26 08:15:41;;;;;;;7.75;2.90;;;;;;;3.55;85.33;96636.47;5070347;28;20586;-66
2023/12/26 08:18:25;;;;;;;6.90;2.40;;;;;;;3.57;85.85;96645.75;5070423;28;20511;-64
2023/12/26 08:20:51;;;;;;;5.85;2.38;;;;;;;3.52;85.86;96641.75;5070545;28;20036;-72
2023/12/26 08:23:17;;;;;;;5.80;2.30;;;;;;;3.40;86.57;96643.28;5071459;28;20106;-67
2023/12/26 08:25:43;;;;;;;7.28;2.63;;;;;;;3.44;87.83;96651.63;5069744;28;20671;-66
2023/12/26 08:28:09;;;;;;;4.53;2.63;;;;;;;3.46;87.78;96652.38;5070953;28;20051;-64
2023/12/26 08:30:35;;;;;;;9.30;3.03;;;;;;;3.30;88.03;96630.09;5069450;28;20185;-66
2023/12/26 08:33:01;;;;;;;5.57;2.58;;;;;;;3.46;88.60;96660.91;5070653;28;20127;-66
2023/12/26 08:35:27;;;;;;;7.43;2.90;;;;;;;3.48;88.77;96669.34;5070188;28;20045;-67
2023/12/26 08:37:53;;;;;;;3.63;2.40;;;;;;;3.34;88.92;96641.03;5070910;28;20044;-65
2023/12/26 08:40:20;;;;;;;2.83;1.60;;;;;;;3.59;89.30;96679.03;5052746;28;20041;-66
2023/12/26 08:42:46;;;;;;;6.18;2.03;;;;;;;3.64;89.10;96677.88;5064171;28;20035;-66
2023/12/26 08:45:12;;;;;;;6.45;3.20;;;;;;;3.46;88.74;96672.91;5089809;28;20495;-65
2023/12/26 08:47:38;;;;;;;3.22;2.30;;;;;;;3.54;88.89;96694.72;5089641;28;20036;-65
2023/12/26 08:50:05;;;;;;;3.03;1.55;;;;;;;3.24;89.18;96652.72;5091644;28;20079;-66
2023/12/26 08:52:32;;;;;;;2.83;1.65;;;;;;;3.51;89.41;96694.06;5069617;28;20041;-66
2023/12/26 08:54:58;;;;;;;3.22;1.83;;;;;;;3.58;89.68;96696.19;5069310;28;20048;-64
2023/12/26 08:57:24;;;;;;;2.70;1.35;;;;;;;3.64;89.50;96700.16;5059418;28;20044;-66
2023/12/26 08:59:50;;;;;;;4.88;2.20;;;;;;;3.54;88.79;96693.88;5089908;28;20042;-67
2023/12/26 09:02:15;;;;;;;3.20;1.70;;;;;;;3.53;88.42;96716.16;5089027;28;20046;-67
2023/12/26 09:04:41;;;;;;;2.97;1.50;;;;;;;3.52;89.23;96716.22;5089581;28;20101;-66
2023/12/26 09:07:07;;;;;;;2.13;1.23;;;;;;;3.50;88.36;96718.91;5089816;28;20085;-66
2023/12/26 09:09:34;;;;;;;3.22;1.20;;;;;;;3.47;88.14;96721.63;5069170;28;20071;-65
2023/12/26 09:12:00;;;;;;;2.25;1.40;;;;;;;3.53;88.05;96730.72;5068232;28;20052;-65
2023/12/26 09:14:25;;;;;;;2.97;1.17;;;;;;;3.55;87.88;96734.91;5070305;28;20047;-67
2023/12/26 09:16:51;;;;;;;2.72;1.45;;;;;;;3.44;87.45;96732.06;5070202;28;20526;-66
2023/12/26 09:19:17;;;;;;;1.98;1.20;;;;;;;3.22;87.07;96699.00;5068521;28;20489;-65
2023/12/26 09:21:44;;;;;;;1.58;0.88;;;;;;;3.49;86.37;96747.22;5035979;28;20038;-66
2023/12/26 09:24:10;;;;;;;4.13;1.65;;;;;;;3.46;85.86;96737.94;5068778;28;20137;-66
2023/12/26 09:26:36;;;;;;;3.00;1.00;;;;;;;3.22;85.20;96696.44;5052127;28;20032;-65
2023/12/26 09:29:01;;;;;;;3.30;0.60;;;;;;;3.60;84.61;96748.31;5068807;28;20051;-64
2023/12/26 09:31:27;;;;;;;1.85;0.88;;;;;;;3.40;83.66;96720.31;5069954;28;20432;-67
2023/12/26 09:33:53;;;;;;;0.98;0.68;;;;;;;3.57;83.21;96752.75;5068660;28;20133;-69
2023/12/26 09:36:19;;;;;;;2.22;0.90;;;;;;;3.67;83.47;96762.47;5068726;28;20044;-64
2023/12/26 09:38:45;;;;;;;2.10;1.30;;;;;;;3.83;82.56;96770.19;5069147;28;20055;-66
2023/12/26 09:41:13;;;;;;;5.15;0.88;;;;;;;3.81;81.58;96769.44;5069956;28;20040;-65
2023/12/26 09:43:48;;;;;;;1.55;1.02;;;;;;;4.01;81.29;96773.50;5068645;28;20067;-65
2023/12/26 09:46:14;;;;;;;2.05;0.73;;;;;;;3.99;80.49;96789.00;5053666;28;20086;-67
2023/12/26 09:48:41;;;;;;;1.00;0.40;;;;;;;3.90;80.05;96788.66;5071213;28;20048;-65
2023/12/26 09:51:09;;;;;;;0.73;0.57;;;;;;;3.94;79.66;96797.88;5072421;28;20064;-66
2023/12/26 09:53:39;;;;;;;0.60;0.57;;;;;;;4.16;78.98;96800.94;5068487;28;20042;-66
2023/12/26 09:56:04;;;;;;;;;;;;;;;4.12;77.73;96813.13;5068375;28;20051;-66
2023/12/26 09:58:31;;;;;;;2.50;0.90;;;;;;;4.16;77.21;96803.50;5067826;28;19916;-66
2023/12/26 10:00:57;;;;;;;1.83;0.90;;;;;;;4.25;77.33;96810.69;5051387;28;20047;-66
2023/12/26 10:03:24;;;;;;;1.55;0.60;;;;;;;4.21;76.48;96810.06;5068105;28;20059;-67
2023/12/26 10:05:57;;;;;;;1.90;1.00;;;;;;;4.18;76.72;96815.38;5067989;28;20040;-67
2023/12/26 10:08:24;;;;;;;2.92;0.75;;;;;;;4.09;76.79;96820.16;5068963;28;20039;-68
2023/12/26 10:10:50;;;;;;;2.92;1.23;;;;;;;4.17;76.83;96829.13;5064447;28;20044;-65
2023/12/26 10:13:16;;;;;;;2.35;0.63;;;;;;;4.12;76.32;96841.41;5068823;28;20542;-66
2023/12/26 10:15:42;;;;;;;2.15;0.90;;;;;;;3.84;76.51;96812.94;5034534;28;20040;-66
2023/12/26 10:18:10;;;;;;;1.80;0.90;;;;;;;3.41;77.40;96763.03;5067718;28;20044;-66
2023/12/26 10:20:37;;;;;;;9.48;1.10;;;;;;;3.82;77.27;96851.56;5068947;28;20040;-65
2023/12/26 10:23:06;;;;;;;1.63;0.90;;;;;;;3.74;77.76;96860.59;5068773;28;20477;-65
2023/12/26 10:25:31;;;;;;;3.00;0.80;;;;;;;3.79;78.36;96858.63;5050749;28;20052;-65
2023/12/26 10:27:59;;;;;;;2.10;0.52;;;;;;;3.71;78.31;96871.88;5051081;28;20534;-67
2023/12/26 10:30:25;;;;;;;1.10;0.52;;;;;;;3.15;78.23;96814.88;5068435;28;20049;-66
2023/12/26 10:32:59;;;;;;;1.77;0.90;;;;;;;3.50;79.04;96888.38;5067058;28;20040;-66
2023/12/26 10:35:25;;;;;;;0.73;0.40;;;;;;;3.49;78.45;96881.59;5067383;28;20041;-65
2023/12/26 10:37:51;;;;;;;2.50;0.57;;;;;;;3.23;78.84;96833.28;5067390;28;20492;-66
2023/12/26 10:40:18;;;;;;;2.70;0.68;;;;;;;3.55;78.48;96888.97;5068321;28;20679;-68
2023/12/26 10:42:49;;;;;;;0.55;0.40;;;;;;;3.60;78.35;96889.56;5069133;28;20051;-67
2023/12/26 10:45:18;;;;;;;0.90;0.50;;;;;;;3.48;77.27;96891.94;5067117;28;20067;-67
2023/12/26 10:47:45;;;;;;;;;;;;;;;3.46;77.96;96909.13;5067688;28;20105;-66
2023/12/26 10:50:12;;;;;;;5.43;0.68;;;;;;;3.44;77.88;96916.94;5072461;28;19916;-66
2023/12/26 10:52:41;;;;;;;0.40;0.40;;;;;;;3.30;78.22;96914.22;5050634;28;20036;-67
2023/12/26 10:55:08;;;;;;;0.85;0.50;;;;;;;3.14;77.83;96918.47;5050820;28;20089;-67
2023/12/26 10:57:37;;;;;;;0.50;0.30;;;;;;;3.05;77.29;96916.31;5066349;28;20143;-68
2023/12/26 11:00:03;;;;;;;0.60;0.43;;;;;;;2.58;77.18;96863.00;5068408;28;20087;-68
2023/12/26 11:02:30;;;;;;;0.43;0.40;;;;;;;3.17;77.31;96926.84;5068777;28;20066;-67
2023/12/26 11:04:56;;;;;;;0.40;0.40;;;;;;;3.33;76.87;96929.47;5067611;28;20165;-68
2023/12/26 11:07:22;;;;;;;0.35;0.28;;;;;;;2.99;75.00;96913.16;5069258;28;20045;-68
2023/12/26 11:09:48;;;;;;;2.00;0.43;;;;;;;2.88;74.53;96912.00;5071606;28;20474;-67
2023/12/26 11:12:14;;;;;;;0.28;0.28;;;;;;;2.97;74.15;96944.94;5069558;28;20052;-66
2023/12/26 11:14:40;;;;;;;0.90;0.47;;;;;;;2.88;74.26;96942.78;5051694;28;20464;-66
2023/12/26 11:17:07;;;;;;;3.38;1.52;;;;;;;3.03;74.20;96954.06;5069316;28;20040;-68
2023/12/26 11:19:34;;;;;;;1.25;0.45;;;;;;;3.00;74.29;96970.44;5068734;28;20615;-67
2023/12/26 11:21:59;;;;;;;0.70;0.40;;;;;;;2.85;74.49;96950.63;5068878;28;20052;-69
2023/12/26 11:24:25;;;;;;;1.08;0.57;;;;;;;3.07;74.48;96969.25;5050437;28;20048;-67
2023/12/26 11:26:52;;;;;;;1.05;0.50;;;;;;;3.01;74.79;96990.06;5066879;28;20123;-66
2023/12/26 11:29:18;;;;;;;0.70;0.50;;;;;;;2.78;74.19;96944.13;5066578;28;20433;-66
2023/12/26 11:31:44;;;;;;;0.70;0.40;;;;;;;2.69;74.49;96947.97;5033378;28;20090;-69
2023/12/26 11:34:12;;;;;;;0.55;0.32;;;;;;;2.76;74.89;96992.13;5068214;28;20048;-68
2023/12/26 11:36:39;;;;;;;0.90;0.60;;;;;;;2.78;75.35;97000.56;5049982;28;20512;-70